sensor_id;sensor_type;location;lat;lon;timestamp;P1;durP1;ratioP1;P2;durP2;ratioP2
7017;SDS011;3549;42.162;24.726;2022-11-15T00:01:38;90.30;;;36.33;;
7017;SDS011;3549;42.162;24.726;2022-11-15T00:04:04;82.43;;;36.40;;
7017;SDS011;3549;42.162;24.726;2022-11-15T00:06:30;86.33;;;36.70;;
7017;SDS011;3549;42.162;24.726;2022-11-15T00:08:59;84.67;;;37.10;;
7017;SDS011;3549;42.162;24.726;2022-11-15T00:11:25;90.57;;;36.97;;
7017;SDS011;3549;42.162;24.726;2022-11-15T00:13:51;88.87;;;37.13;;
7017;SDS011;3549;42.162;24.726;2022-11-15T00:16:20;85.43;;;36.43;;
7017;SDS011;3549;42.162;24.726;2022-11-15T00:18:45;82.20;;;36.47;;
7017;SDS011;3549;42.162;24.726;2022-11-15T00:21:12;82.17;;;35.70;;
7017;SDS011;3549;42.162;24.726;2022-11-15T00:23:38;81.30;;;36.23;;
7017;SDS011;3549;42.162;24.726;2022-11-15T00:26:04;81.53;;;35.87;;
7017;SDS011;3549;42.162;24.726;2022-11-15T00:28:29;82.27;;;33.30;;
7017;SDS011;3549;42.162;24.726;2022-11-15T00:31:02;85.97;;;34.83;;
7017;SDS011;3549;42.162;24.726;2022-11-15T00:33:29;81.13;;;33.50;;
7017;SDS011;3549;42.162;24.726;2022-11-15T00:38:31;76.07;;;33.87;;
7017;SDS011;3549;42.162;24.726;2022-11-15T00:41:00;76.33;;;33.47;;
7017;SDS011;3549;42.162;24.726;2022-11-15T00:43:26;73.10;;;32.00;;
7017;SDS011;3549;42.162;24.726;2022-11-15T00:45:51;77.40;;;33.70;;
7017;SDS011;3549;42.162;24.726;2022-11-15T00:48:17;74.53;;;33.00;;
7017;SDS011;3549;42.162;24.726;2022-11-15T00:50:42;74.47;;;33.23;;
7017;SDS011;3549;42.162;24.726;2022-11-15T00:53:08;64.87;;;30.17;;
7017;SDS011;3549;42.162;24.726;2022-11-15T00:55:33;67.53;;;30.37;;
7017;SDS011;3549;42.162;24.726;2022-11-15T00:57:59;65.17;;;30.13;;
7017;SDS011;3549;42.162;24.726;2022-11-15T01:00:24;66.90;;;30.43;;
7017;SDS011;3549;42.162;24.726;2022-11-15T01:02:50;68.33;;;30.53;;
7017;SDS011;3549;42.162;24.726;2022-11-15T01:05:15;64.93;;;30.00;;
7017;SDS011;3549;42.162;24.726;2022-11-15T01:07:40;69.40;;;31.70;;
7017;SDS011;3549;42.162;24.726;2022-11-15T01:10:06;70.93;;;32.50;;
7017;SDS011;3549;42.162;24.726;2022-11-15T01:12:32;76.77;;;33.03;;
7017;SDS011;3549;42.162;24.726;2022-11-15T01:14:58;71.20;;;32.37;;
7017;SDS011;3549;42.162;24.726;2022-11-15T01:17:24;67.50;;;31.10;;
7017;SDS011;3549;42.162;24.726;2022-11-15T01:19:53;74.73;;;31.80;;
7017;SDS011;3549;42.162;24.726;2022-11-15T01:22:18;63.07;;;29.73;;
7017;SDS011;3549;42.162;24.726;2022-11-15T01:24:44;70.43;;;31.80;;
7017;SDS011;3549;42.162;24.726;2022-11-15T01:27:09;67.03;;;31.60;;
7017;SDS011;3549;42.162;24.726;2022-11-15T01:29:35;68.37;;;31.13;;
7017;SDS011;3549;42.162;24.726;2022-11-15T01:32:00;65.37;;;30.23;;
7017;SDS011;3549;42.162;24.726;2022-11-15T01:34:26;68.27;;;30.33;;
7017;SDS011;3549;42.162;24.726;2022-11-15T01:36:51;66.47;;;30.23;;
7017;SDS011;3549;42.162;24.726;2022-11-15T01:39:17;68.00;;;29.60;;
7017;SDS011;3549;42.162;24.726;2022-11-15T01:41:43;64.93;;;29.33;;
7017;SDS011;3549;42.162;24.726;2022-11-15T01:46:56;65.60;;;29.37;;
7017;SDS011;3549;42.162;24.726;2022-11-15T01:49:24;66.13;;;30.37;;
7017;SDS011;3549;42.162;24.726;2022-11-15T01:51:53;61.30;;;29.30;;
7017;SDS011;3549;42.162;24.726;2022-11-15T01:54:20;62.37;;;29.77;;
7017;SDS011;3549;42.162;24.726;2022-11-15T01:56:53;64.50;;;28.37;;
7017;SDS011;3549;42.162;24.726;2022-11-15T01:59:26;64.30;;;29.53;;
7017;SDS011;3549;42.162;24.726;2022-11-15T02:01:52;62.63;;;29.10;;
7017;SDS011;3549;42.162;24.726;2022-11-15T02:04:20;65.67;;;29.77;;
7017;SDS011;3549;42.162;24.726;2022-11-15T02:06:49;65.47;;;29.27;;
7017;SDS011;3549;42.162;24.726;2022-11-15T02:09:15;63.43;;;28.90;;
7017;SDS011;3549;42.162;24.726;2022-11-15T02:11:41;63.90;;;28.40;;
7017;SDS011;3549;42.162;24.726;2022-11-15T02:14:08;60.07;;;27.87;;
7017;SDS011;3549;42.162;24.726;2022-11-15T02:16:44;58.90;;;27.10;;
7017;SDS011;3549;42.162;24.726;2022-11-15T02:30:45;62.33;;;27.93;;
7017;SDS011;3549;42.162;24.726;2022-11-15T02:36:07;61.40;;;27.10;;
7017;SDS011;3549;42.162;24.726;2022-11-15T02:41:24;54.80;;;26.20;;
7017;SDS011;3549;42.162;24.726;2022-11-15T02:44:06;59.17;;;26.60;;
7017;SDS011;3549;42.162;24.726;2022-11-15T02:46:41;58.70;;;26.83;;
7017;SDS011;3549;42.162;24.726;2022-11-15T02:49:29;65.20;;;26.87;;
7017;SDS011;3549;42.162;24.726;2022-11-15T02:51:57;58.53;;;27.70;;
7017;SDS011;3549;42.162;24.726;2022-11-15T02:54:28;59.10;;;27.27;;
7017;SDS011;3549;42.162;24.726;2022-11-15T02:57:01;62.23;;;28.23;;
7017;SDS011;3549;42.162;24.726;2022-11-15T03:10:40;64.53;;;28.77;;
7017;SDS011;3549;42.162;24.726;2022-11-15T03:13:23;68.37;;;29.33;;
7017;SDS011;3549;42.162;24.726;2022-11-15T03:16:02;63.03;;;26.80;;
7017;SDS011;3549;42.162;24.726;2022-11-15T03:18:35;71.47;;;28.00;;
7017;SDS011;3549;42.162;24.726;2022-11-15T03:21:07;94.73;;;35.07;;
7017;SDS011;3549;42.162;24.726;2022-11-15T03:23:36;66.83;;;29.57;;
7017;SDS011;3549;42.162;24.726;2022-11-15T03:26:03;59.37;;;27.27;;
7017;SDS011;3549;42.162;24.726;2022-11-15T03:28:50;60.40;;;28.07;;
7017;SDS011;3549;42.162;24.726;2022-11-15T03:31:29;62.40;;;27.87;;
7017;SDS011;3549;42.162;24.726;2022-11-15T03:36:50;55.87;;;27.57;;
7017;SDS011;3549;42.162;24.726;2022-11-15T03:39:17;60.77;;;28.93;;
7017;SDS011;3549;42.162;24.726;2022-11-15T03:41:56;66.50;;;30.30;;
7017;SDS011;3549;42.162;24.726;2022-11-15T03:49:52;65.53;;;29.93;;
7017;SDS011;3549;42.162;24.726;2022-11-15T03:52:23;110.67;;;45.53;;
7017;SDS011;3549;42.162;24.726;2022-11-15T03:54:53;89.80;;;41.80;;
7017;SDS011;3549;42.162;24.726;2022-11-15T03:57:20;74.80;;;35.83;;
7017;SDS011;3549;42.162;24.726;2022-11-15T03:59:46;60.77;;;27.63;;
7017;SDS011;3549;42.162;24.726;2022-11-15T04:02:12;64.77;;;27.80;;
7017;SDS011;3549;42.162;24.726;2022-11-15T04:04:38;63.07;;;27.70;;
7017;SDS011;3549;42.162;24.726;2022-11-15T04:07:04;62.00;;;28.27;;
7017;SDS011;3549;42.162;24.726;2022-11-15T04:09:30;102.57;;;47.13;;
7017;SDS011;3549;42.162;24.726;2022-11-15T04:11:55;84.10;;;39.50;;
7017;SDS011;3549;42.162;24.726;2022-11-15T04:14:20;82.67;;;38.73;;
7017;SDS011;3549;42.162;24.726;2022-11-15T04:16:46;81.00;;;36.30;;
7017;SDS011;3549;42.162;24.726;2022-11-15T04:19:11;71.60;;;33.70;;
7017;SDS011;3549;42.162;24.726;2022-11-15T04:21:55;69.47;;;32.57;;
7017;SDS011;3549;42.162;24.726;2022-11-15T04:24:39;59.90;;;29.17;;
7017;SDS011;3549;42.162;24.726;2022-11-15T04:27:04;65.23;;;28.47;;
7017;SDS011;3549;42.162;24.726;2022-11-15T04:29:30;63.43;;;29.13;;
7017;SDS011;3549;42.162;24.726;2022-11-15T04:32:02;65.83;;;27.77;;
7017;SDS011;3549;42.162;24.726;2022-11-15T04:34:29;62.80;;;29.90;;
7017;SDS011;3549;42.162;24.726;2022-11-15T04:36:54;67.57;;;32.53;;
7017;SDS011;3549;42.162;24.726;2022-11-15T04:39:41;89.47;;;41.83;;
7017;SDS011;3549;42.162;24.726;2022-11-15T04:42:08;93.93;;;43.87;;
7017;SDS011;3549;42.162;24.726;2022-11-15T04:44:34;76.97;;;34.90;;
7017;SDS011;3549;42.162;24.726;2022-11-15T04:47:00;63.77;;;30.03;;
7017;SDS011;3549;42.162;24.726;2022-11-15T04:49:26;81.57;;;37.80;;
7017;SDS011;3549;42.162;24.726;2022-11-15T04:51:51;93.70;;;42.03;;
7017;SDS011;3549;42.162;24.726;2022-11-15T04:54:17;95.03;;;39.60;;
7017;SDS011;3549;42.162;24.726;2022-11-15T04:56:42;63.40;;;28.90;;
7017;SDS011;3549;42.162;24.726;2022-11-15T04:59:07;62.90;;;28.10;;
7017;SDS011;3549;42.162;24.726;2022-11-15T05:01:33;55.40;;;26.17;;
7017;SDS011;3549;42.162;24.726;2022-11-15T05:03:58;106.57;;;43.23;;
7017;SDS011;3549;42.162;24.726;2022-11-15T05:06:42;94.70;;;44.63;;
7017;SDS011;3549;42.162;24.726;2022-11-15T05:09:08;78.77;;;37.23;;
7017;SDS011;3549;42.162;24.726;2022-11-15T05:11:33;71.60;;;34.10;;
7017;SDS011;3549;42.162;24.726;2022-11-15T05:13:59;65.17;;;30.40;;
7017;SDS011;3549;42.162;24.726;2022-11-15T05:16:24;62.27;;;28.10;;
7017;SDS011;3549;42.162;24.726;2022-11-15T05:18:53;60.07;;;28.57;;
7017;SDS011;3549;42.162;24.726;2022-11-15T05:21:19;62.33;;;27.33;;
7017;SDS011;3549;42.162;24.726;2022-11-15T05:23:45;56.40;;;26.20;;
7017;SDS011;3549;42.162;24.726;2022-11-15T05:26:10;62.80;;;28.63;;
7017;SDS011;3549;42.162;24.726;2022-11-15T05:28:36;64.57;;;29.50;;
7017;SDS011;3549;42.162;24.726;2022-11-15T05:31:06;69.63;;;31.93;;
7017;SDS011;3549;42.162;24.726;2022-11-15T05:33:33;71.80;;;33.83;;
7017;SDS011;3549;42.162;24.726;2022-11-15T05:36:04;65.97;;;30.27;;
7017;SDS011;3549;42.162;24.726;2022-11-15T05:38:33;78.63;;;35.80;;
7017;SDS011;3549;42.162;24.726;2022-11-15T05:40:59;60.63;;;28.57;;
7017;SDS011;3549;42.162;24.726;2022-11-15T05:43:25;53.37;;;24.97;;
7017;SDS011;3549;42.162;24.726;2022-11-15T05:45:51;66.97;;;29.83;;
7017;SDS011;3549;42.162;24.726;2022-11-15T05:48:17;88.10;;;39.67;;
7017;SDS011;3549;42.162;24.726;2022-11-15T05:50:43;75.50;;;34.70;;
7017;SDS011;3549;42.162;24.726;2022-11-15T05:53:11;63.77;;;28.97;;
7017;SDS011;3549;42.162;24.726;2022-11-15T05:55:40;59.23;;;27.50;;
7017;SDS011;3549;42.162;24.726;2022-11-15T05:58:06;61.40;;;28.87;;
7017;SDS011;3549;42.162;24.726;2022-11-15T06:00:32;58.87;;;29.53;;
7017;SDS011;3549;42.162;24.726;2022-11-15T06:02:57;55.80;;;26.20;;
7017;SDS011;3549;42.162;24.726;2022-11-15T06:05:23;57.90;;;27.43;;
7017;SDS011;3549;42.162;24.726;2022-11-15T06:07:48;58.10;;;29.97;;
7017;SDS011;3549;42.162;24.726;2022-11-15T06:10:14;53.43;;;27.33;;
7017;SDS011;3549;42.162;24.726;2022-11-15T06:12:39;53.27;;;23.90;;
7017;SDS011;3549;42.162;24.726;2022-11-15T06:15:05;50.33;;;22.27;;
7017;SDS011;3549;42.162;24.726;2022-11-15T06:17:30;49.77;;;24.23;;
7017;SDS011;3549;42.162;24.726;2022-11-15T06:19:58;47.67;;;21.77;;
7017;SDS011;3549;42.162;24.726;2022-11-15T06:22:24;45.77;;;20.43;;
7017;SDS011;3549;42.162;24.726;2022-11-15T06:24:49;47.03;;;21.90;;
7017;SDS011;3549;42.162;24.726;2022-11-15T06:27:14;44.13;;;20.87;;
7017;SDS011;3549;42.162;24.726;2022-11-15T06:29:40;43.70;;;20.80;;
7017;SDS011;3549;42.162;24.726;2022-11-15T06:32:05;44.47;;;23.17;;
7017;SDS011;3549;42.162;24.726;2022-11-15T06:34:31;43.67;;;21.83;;
7017;SDS011;3549;42.162;24.726;2022-11-15T06:36:56;44.37;;;21.80;;
7017;SDS011;3549;42.162;24.726;2022-11-15T06:39:22;42.97;;;21.40;;
7017;SDS011;3549;42.162;24.726;2022-11-15T06:41:47;41.00;;;20.90;;
7017;SDS011;3549;42.162;24.726;2022-11-15T06:44:13;48.83;;;21.07;;
7017;SDS011;3549;42.162;24.726;2022-11-15T06:46:38;60.83;;;27.60;;
7017;SDS011;3549;42.162;24.726;2022-11-15T06:49:03;47.33;;;23.97;;
7017;SDS011;3549;42.162;24.726;2022-11-15T06:51:29;42.07;;;21.27;;
7017;SDS011;3549;42.162;24.726;2022-11-15T06:53:54;41.27;;;21.67;;
7017;SDS011;3549;42.162;24.726;2022-11-15T06:56:20;43.33;;;22.57;;
7017;SDS011;3549;42.162;24.726;2022-11-15T06:58:45;48.93;;;23.23;;
7017;SDS011;3549;42.162;24.726;2022-11-15T07:01:11;47.20;;;23.23;;
7017;SDS011;3549;42.162;24.726;2022-11-15T07:03:38;46.23;;;22.63;;
7017;SDS011;3549;42.162;24.726;2022-11-15T07:06:06;41.10;;;20.80;;
7017;SDS011;3549;42.162;24.726;2022-11-15T07:08:33;42.47;;;20.23;;
7017;SDS011;3549;42.162;24.726;2022-11-15T07:11:03;39.77;;;20.70;;
7017;SDS011;3549;42.162;24.726;2022-11-15T07:13:30;42.77;;;20.63;;
7017;SDS011;3549;42.162;24.726;2022-11-15T07:16:06;38.87;;;20.77;;
7017;SDS011;3549;42.162;24.726;2022-11-15T07:18:34;41.13;;;20.60;;
7017;SDS011;3549;42.162;24.726;2022-11-15T07:21:02;39.53;;;19.73;;
7017;SDS011;3549;42.162;24.726;2022-11-15T07:23:35;43.40;;;20.80;;
7017;SDS011;3549;42.162;24.726;2022-11-15T07:26:03;41.50;;;21.20;;
7017;SDS011;3549;42.162;24.726;2022-11-15T07:28:28;43.90;;;21.73;;
7017;SDS011;3549;42.162;24.726;2022-11-15T07:30:54;46.97;;;23.10;;
7017;SDS011;3549;42.162;24.726;2022-11-15T07:33:20;48.47;;;24.33;;
7017;SDS011;3549;42.162;24.726;2022-11-15T07:35:45;39.67;;;20.87;;
7017;SDS011;3549;42.162;24.726;2022-11-15T07:38:14;42.07;;;21.20;;
7017;SDS011;3549;42.162;24.726;2022-11-15T07:40:40;48.43;;;22.97;;
7017;SDS011;3549;42.162;24.726;2022-11-15T07:43:06;68.07;;;33.13;;
7017;SDS011;3549;42.162;24.726;2022-11-15T07:45:39;46.03;;;22.27;;
7017;SDS011;3549;42.162;24.726;2022-11-15T07:48:38;37.63;;;18.47;;
7017;SDS011;3549;42.162;24.726;2022-11-15T07:51:12;61.57;;;29.40;;
7017;SDS011;3549;42.162;24.726;2022-11-15T07:53:39;47.63;;;21.20;;
7017;SDS011;3549;42.162;24.726;2022-11-15T07:56:08;35.97;;;17.53;;
7017;SDS011;3549;42.162;24.726;2022-11-15T07:58:37;55.27;;;25.03;;
7017;SDS011;3549;42.162;24.726;2022-11-15T08:01:03;53.80;;;24.83;;
7017;SDS011;3549;42.162;24.726;2022-11-15T08:03:33;46.53;;;22.40;;
7017;SDS011;3549;42.162;24.726;2022-11-15T08:05:58;51.63;;;26.53;;
7017;SDS011;3549;42.162;24.726;2022-11-15T08:08:27;62.53;;;28.70;;
7017;SDS011;3549;42.162;24.726;2022-11-15T08:10:52;36.67;;;17.67;;
7017;SDS011;3549;42.162;24.726;2022-11-15T08:13:17;37.33;;;19.47;;
7017;SDS011;3549;42.162;24.726;2022-11-15T08:15:43;32.03;;;16.90;;
7017;SDS011;3549;42.162;24.726;2022-11-15T08:18:10;28.20;;;14.93;;
7017;SDS011;3549;42.162;24.726;2022-11-15T08:20:40;29.27;;;14.77;;
7017;SDS011;3549;42.162;24.726;2022-11-15T08:23:06;31.23;;;15.97;;
7017;SDS011;3549;42.162;24.726;2022-11-15T08:25:33;31.17;;;16.53;;
7017;SDS011;3549;42.162;24.726;2022-11-15T08:28:00;44.17;;;20.43;;
7017;SDS011;3549;42.162;24.726;2022-11-15T08:30:27;48.47;;;21.80;;
7017;SDS011;3549;42.162;24.726;2022-11-15T08:32:53;62.60;;;28.80;;
7017;SDS011;3549;42.162;24.726;2022-11-15T08:35:21;68.03;;;31.97;;
7017;SDS011;3549;42.162;24.726;2022-11-15T08:37:46;71.27;;;32.03;;
7017;SDS011;3549;42.162;24.726;2022-11-15T08:40:12;55.50;;;27.13;;
7017;SDS011;3549;42.162;24.726;2022-11-15T08:42:38;43.17;;;20.70;;
7017;SDS011;3549;42.162;24.726;2022-11-15T08:45:04;95.90;;;39.13;;
7017;SDS011;3549;42.162;24.726;2022-11-15T08:47:31;54.30;;;25.40;;
7017;SDS011;3549;42.162;24.726;2022-11-15T08:49:56;59.80;;;28.17;;
7017;SDS011;3549;42.162;24.726;2022-11-15T08:52:21;41.10;;;19.90;;
7017;SDS011;3549;42.162;24.726;2022-11-15T08:54:47;38.50;;;19.90;;
7017;SDS011;3549;42.162;24.726;2022-11-15T08:57:12;58.30;;;25.97;;
7017;SDS011;3549;42.162;24.726;2022-11-15T08:59:38;48.10;;;22.57;;
7017;SDS011;3549;42.162;24.726;2022-11-15T09:02:04;48.63;;;22.47;;
7017;SDS011;3549;42.162;24.726;2022-11-15T09:04:30;45.30;;;22.80;;
7017;SDS011;3549;42.162;24.726;2022-11-15T09:06:56;48.90;;;25.00;;
7017;SDS011;3549;42.162;24.726;2022-11-15T09:09:21;38.23;;;20.37;;
7017;SDS011;3549;42.162;24.726;2022-11-15T09:11:47;38.17;;;19.63;;
7017;SDS011;3549;42.162;24.726;2022-11-15T09:14:13;40.03;;;20.60;;
7017;SDS011;3549;42.162;24.726;2022-11-15T09:16:39;43.97;;;22.60;;
7017;SDS011;3549;42.162;24.726;2022-11-15T09:19:04;38.57;;;20.27;;
7017;SDS011;3549;42.162;24.726;2022-11-15T09:21:30;35.93;;;20.13;;
7017;SDS011;3549;42.162;24.726;2022-11-15T09:23:55;34.80;;;17.97;;
7017;SDS011;3549;42.162;24.726;2022-11-15T09:26:21;38.37;;;19.07;;
7017;SDS011;3549;42.162;24.726;2022-11-15T09:28:47;36.70;;;19.37;;
7017;SDS011;3549;42.162;24.726;2022-11-15T09:31:13;39.73;;;20.67;;
7017;SDS011;3549;42.162;24.726;2022-11-15T09:33:38;45.13;;;23.77;;
7017;SDS011;3549;42.162;24.726;2022-11-15T09:36:04;45.40;;;20.93;;
7017;SDS011;3549;42.162;24.726;2022-11-15T09:38:32;37.97;;;19.50;;
7017;SDS011;3549;42.162;24.726;2022-11-15T09:46:27;39.33;;;20.43;;
7017;SDS011;3549;42.162;24.726;2022-11-15T09:49:00;38.13;;;21.13;;
7017;SDS011;3549;42.162;24.726;2022-11-15T09:51:33;37.40;;;19.83;;
7017;SDS011;3549;42.162;24.726;2022-11-15T09:56:27;40.07;;;20.20;;
7017;SDS011;3549;42.162;24.726;2022-11-15T10:04:06;39.00;;;21.73;;
7017;SDS011;3549;42.162;24.726;2022-11-15T10:06:32;41.07;;;22.00;;
7017;SDS011;3549;42.162;24.726;2022-11-15T10:09:04;41.27;;;22.00;;
7017;SDS011;3549;42.162;24.726;2022-11-15T10:11:37;46.13;;;26.33;;
7017;SDS011;3549;42.162;24.726;2022-11-15T10:14:08;51.30;;;27.33;;
7017;SDS011;3549;42.162;24.726;2022-11-15T10:16:49;49.37;;;27.33;;
7017;SDS011;3549;42.162;24.726;2022-11-15T10:19:35;47.03;;;24.57;;
7017;SDS011;3549;42.162;24.726;2022-11-15T10:24:49;36.43;;;20.20;;
7017;SDS011;3549;42.162;24.726;2022-11-15T10:27:18;36.10;;;21.13;;
7017;SDS011;3549;42.162;24.726;2022-11-15T10:29:45;38.17;;;20.53;;
7017;SDS011;3549;42.162;24.726;2022-11-15T10:32:13;41.20;;;20.60;;
7017;SDS011;3549;42.162;24.726;2022-11-15T10:34:40;34.50;;;18.87;;
7017;SDS011;3549;42.162;24.726;2022-11-15T10:37:06;35.93;;;20.40;;
7017;SDS011;3549;42.162;24.726;2022-11-15T10:39:32;34.23;;;20.30;;
7017;SDS011;3549;42.162;24.726;2022-11-15T10:42:17;35.27;;;20.17;;
7017;SDS011;3549;42.162;24.726;2022-11-15T10:44:53;34.43;;;19.70;;
7017;SDS011;3549;42.162;24.726;2022-11-15T10:47:20;34.63;;;20.10;;
7017;SDS011;3549;42.162;24.726;2022-11-15T10:50:06;33.53;;;20.13;;
7017;SDS011;3549;42.162;24.726;2022-11-15T10:52:51;33.70;;;19.37;;
7017;SDS011;3549;42.162;24.726;2022-11-15T10:57:47;33.90;;;19.60;;
7017;SDS011;3549;42.162;24.726;2022-11-15T11:05:29;34.40;;;19.57;;
7017;SDS011;3549;42.162;24.726;2022-11-15T11:08:02;34.37;;;19.70;;
7017;SDS011;3549;42.162;24.726;2022-11-15T11:10:30;37.30;;;20.93;;
7017;SDS011;3549;42.162;24.726;2022-11-15T11:13:10;36.17;;;21.57;;
7017;SDS011;3549;42.162;24.726;2022-11-15T11:15:38;38.70;;;20.50;;
7017;SDS011;3549;42.162;24.726;2022-11-15T11:18:10;35.80;;;21.03;;
7017;SDS011;3549;42.162;24.726;2022-11-15T11:21:04;36.63;;;21.03;;
7017;SDS011;3549;42.162;24.726;2022-11-15T11:26:38;34.83;;;21.17;;
7017;SDS011;3549;42.162;24.726;2022-11-15T11:35:05;35.37;;;20.80;;
7017;SDS011;3549;42.162;24.726;2022-11-15T11:37:51;38.33;;;21.30;;
7017;SDS011;3549;42.162;24.726;2022-11-15T11:40:43;35.57;;;20.93;;
7017;SDS011;3549;42.162;24.726;2022-11-15T11:43:30;35.87;;;21.43;;
7017;SDS011;3549;42.162;24.726;2022-11-15T11:48:48;35.93;;;21.50;;
7017;SDS011;3549;42.162;24.726;2022-11-15T11:51:33;39.07;;;22.73;;
7017;SDS011;3549;42.162;24.726;2022-11-15T11:54:20;41.27;;;21.83;;
7017;SDS011;3549;42.162;24.726;2022-11-15T11:56:50;37.73;;;21.57;;
7017;SDS011;3549;42.162;24.726;2022-11-15T11:59:41;45.17;;;22.87;;
7017;SDS011;3549;42.162;24.726;2022-11-15T12:02:25;37.43;;;22.07;;
7017;SDS011;3549;42.162;24.726;2022-11-15T12:04:58;37.57;;;21.13;;
7017;SDS011;3549;42.162;24.726;2022-11-15T12:07:30;34.90;;;20.93;;
7017;SDS011;3549;42.162;24.726;2022-11-15T12:10:11;41.90;;;22.87;;
7017;SDS011;3549;42.162;24.726;2022-11-15T12:15:16;37.20;;;21.73;;
7017;SDS011;3549;42.162;24.726;2022-11-15T12:17:45;40.90;;;21.67;;
7017;SDS011;3549;42.162;24.726;2022-11-15T12:20:19;40.00;;;22.83;;
7017;SDS011;3549;42.162;24.726;2022-11-15T12:22:49;37.43;;;21.33;;
7017;SDS011;3549;42.162;24.726;2022-11-15T12:25:22;41.40;;;23.37;;
7017;SDS011;3549;42.162;24.726;2022-11-15T12:34:04;41.70;;;21.40;;
7017;SDS011;3549;42.162;24.726;2022-11-15T12:36:41;41.33;;;22.83;;
7017;SDS011;3549;42.162;24.726;2022-11-15T12:39:12;36.60;;;22.30;;
7017;SDS011;3549;42.162;24.726;2022-11-15T12:41:40;39.50;;;22.43;;
7017;SDS011;3549;42.162;24.726;2022-11-15T12:44:16;41.67;;;22.57;;
7017;SDS011;3549;42.162;24.726;2022-11-15T12:59:56;37.03;;;21.47;;
7017;SDS011;3549;42.162;24.726;2022-11-15T13:02:27;34.77;;;20.07;;
7017;SDS011;3549;42.162;24.726;2022-11-15T13:04:54;35.60;;;21.70;;
7017;SDS011;3549;42.162;24.726;2022-11-15T13:22:42;38.17;;;22.23;;
7017;SDS011;3549;42.162;24.726;2022-11-15T13:30:38;41.47;;;24.60;;
7017;SDS011;3549;42.162;24.726;2022-11-15T13:33:09;40.07;;;22.83;;
7017;SDS011;3549;42.162;24.726;2022-11-15T13:35:40;40.57;;;23.17;;
7017;SDS011;3549;42.162;24.726;2022-11-15T13:38:11;49.60;;;28.57;;
7017;SDS011;3549;42.162;24.726;2022-11-15T13:40:47;41.40;;;23.57;;
7017;SDS011;3549;42.162;24.726;2022-11-15T13:48:41;45.17;;;24.80;;
7017;SDS011;3549;42.162;24.726;2022-11-15T13:53:41;43.67;;;24.83;;
7017;SDS011;3549;42.162;24.726;2022-11-15T13:56:11;50.97;;;25.80;;
7017;SDS011;3549;42.162;24.726;2022-11-15T13:58:38;47.63;;;25.37;;
7017;SDS011;3549;42.162;24.726;2022-11-15T14:01:05;47.67;;;25.63;;
7017;SDS011;3549;42.162;24.726;2022-11-15T14:03:32;55.83;;;30.00;;
7017;SDS011;3549;42.162;24.726;2022-11-15T14:06:06;55.93;;;29.13;;
7017;SDS011;3549;42.162;24.726;2022-11-15T14:08:42;48.30;;;25.53;;
7017;SDS011;3549;42.162;24.726;2022-11-15T14:11:27;69.10;;;28.37;;
7017;SDS011;3549;42.162;24.726;2022-11-15T14:14:04;48.47;;;25.17;;
7017;SDS011;3549;42.162;24.726;2022-11-15T14:16:37;48.17;;;25.77;;
7017;SDS011;3549;42.162;24.726;2022-11-15T14:19:04;54.10;;;26.07;;
7017;SDS011;3549;42.162;24.726;2022-11-15T14:21:31;49.37;;;26.50;;
7017;SDS011;3549;42.162;24.726;2022-11-15T14:26:41;57.13;;;28.33;;
7017;SDS011;3549;42.162;24.726;2022-11-15T14:29:25;54.07;;;28.63;;
7017;SDS011;3549;42.162;24.726;2022-11-15T14:31:53;56.50;;;28.43;;
7017;SDS011;3549;42.162;24.726;2022-11-15T14:34:31;53.57;;;27.93;;
7017;SDS011;3549;42.162;24.726;2022-11-15T14:36:57;55.83;;;27.63;;
7017;SDS011;3549;42.162;24.726;2022-11-15T14:39:22;54.23;;;28.67;;
7017;SDS011;3549;42.162;24.726;2022-11-15T14:41:50;63.37;;;29.43;;
7017;SDS011;3549;42.162;24.726;2022-11-15T14:44:15;61.13;;;29.90;;
7017;SDS011;3549;42.162;24.726;2022-11-15T14:46:43;58.27;;;28.83;;
7017;SDS011;3549;42.162;24.726;2022-11-15T14:49:09;59.63;;;29.50;;
7017;SDS011;3549;42.162;24.726;2022-11-15T14:51:34;68.60;;;30.53;;
7017;SDS011;3549;42.162;24.726;2022-11-15T14:54:00;63.70;;;30.77;;
7017;SDS011;3549;42.162;24.726;2022-11-15T14:56:25;64.40;;;31.13;;
7017;SDS011;3549;42.162;24.726;2022-11-15T14:58:51;65.83;;;32.23;;
7017;SDS011;3549;42.162;24.726;2022-11-15T15:01:19;72.27;;;31.87;;
7017;SDS011;3549;42.162;24.726;2022-11-15T15:03:46;65.03;;;31.43;;
7017;SDS011;3549;42.162;24.726;2022-11-15T15:06:12;68.97;;;32.23;;
7017;SDS011;3549;42.162;24.726;2022-11-15T15:08:41;73.07;;;33.20;;
7017;SDS011;3549;42.162;24.726;2022-11-15T15:11:10;76.63;;;34.93;;
7017;SDS011;3549;42.162;24.726;2022-11-15T15:13:38;75.23;;;35.20;;
7017;SDS011;3549;42.162;24.726;2022-11-15T15:16:06;80.03;;;37.17;;
7017;SDS011;3549;42.162;24.726;2022-11-15T15:18:44;74.80;;;35.87;;
7017;SDS011;3549;42.162;24.726;2022-11-15T15:21:20;73.07;;;34.43;;
7017;SDS011;3549;42.162;24.726;2022-11-15T15:24:14;76.60;;;33.93;;
7017;SDS011;3549;42.162;24.726;2022-11-15T15:26:42;77.10;;;34.73;;
7017;SDS011;3549;42.162;24.726;2022-11-15T15:29:08;83.70;;;36.40;;
7017;SDS011;3549;42.162;24.726;2022-11-15T15:31:36;85.93;;;36.73;;
7017;SDS011;3549;42.162;24.726;2022-11-15T15:34:04;76.17;;;35.97;;
7017;SDS011;3549;42.162;24.726;2022-11-15T15:36:47;78.90;;;35.73;;
7017;SDS011;3549;42.162;24.726;2022-11-15T15:39:16;77.67;;;36.00;;
7017;SDS011;3549;42.162;24.726;2022-11-15T15:41:44;77.83;;;37.10;;
7017;SDS011;3549;42.162;24.726;2022-11-15T15:44:10;78.90;;;36.67;;
7017;SDS011;3549;42.162;24.726;2022-11-15T15:46:55;81.47;;;36.73;;
7017;SDS011;3549;42.162;24.726;2022-11-15T15:49:22;80.60;;;37.07;;
7017;SDS011;3549;42.162;24.726;2022-11-15T15:51:49;75.93;;;34.47;;
7017;SDS011;3549;42.162;24.726;2022-11-15T15:54:15;79.97;;;36.43;;
7017;SDS011;3549;42.162;24.726;2022-11-15T15:56:43;76.10;;;35.97;;
7017;SDS011;3549;42.162;24.726;2022-11-15T15:59:08;74.50;;;35.73;;
7017;SDS011;3549;42.162;24.726;2022-11-15T16:01:37;72.43;;;34.93;;
7017;SDS011;3549;42.162;24.726;2022-11-15T16:04:02;77.13;;;35.30;;
7017;SDS011;3549;42.162;24.726;2022-11-15T16:06:35;83.53;;;37.13;;
7017;SDS011;3549;42.162;24.726;2022-11-15T16:09:03;78.13;;;35.77;;
7017;SDS011;3549;42.162;24.726;2022-11-15T16:11:29;74.53;;;34.93;;
7017;SDS011;3549;42.162;24.726;2022-11-15T16:13:54;76.50;;;35.10;;
7017;SDS011;3549;42.162;24.726;2022-11-15T16:16:20;73.63;;;34.23;;
7017;SDS011;3549;42.162;24.726;2022-11-15T16:21:16;69.63;;;33.33;;
7017;SDS011;3549;42.162;24.726;2022-11-15T16:23:42;106.00;;;38.60;;
7017;SDS011;3549;42.162;24.726;2022-11-15T16:26:26;109.63;;;38.30;;
7017;SDS011;3549;42.162;24.726;2022-11-15T16:28:53;77.80;;;36.10;;
7017;SDS011;3549;42.162;24.726;2022-11-15T16:31:22;81.73;;;36.67;;
7017;SDS011;3549;42.162;24.726;2022-11-15T16:33:48;74.77;;;36.23;;
7017;SDS011;3549;42.162;24.726;2022-11-15T16:36:23;80.83;;;36.10;;
7017;SDS011;3549;42.162;24.726;2022-11-15T16:38:50;76.50;;;35.83;;
7017;SDS011;3549;42.162;24.726;2022-11-15T16:41:16;79.27;;;37.60;;
7017;SDS011;3549;42.162;24.726;2022-11-15T16:43:46;73.20;;;35.73;;
7017;SDS011;3549;42.162;24.726;2022-11-15T16:46:17;78.73;;;36.80;;
7017;SDS011;3549;42.162;24.726;2022-11-15T16:48:46;83.40;;;38.73;;
7017;SDS011;3549;42.162;24.726;2022-11-15T16:51:12;90.90;;;41.00;;
7017;SDS011;3549;42.162;24.726;2022-11-15T16:53:38;81.47;;;38.07;;
7017;SDS011;3549;42.162;24.726;2022-11-15T16:56:04;85.50;;;39.23;;
7017;SDS011;3549;42.162;24.726;2022-11-15T16:58:53;84.60;;;38.23;;